Time;durP1;ratioP1;P1;durP2;ratioP2;P2;SDS_P1;SDS_P2;PMS_P1;PMS_P2;Temp;Humidity;BMP_temperature;BMP_pressure;BME280_temperature;BME280_humidity;BME280_pressure;Samples;Min_cycle;Max_cycle;Signal;HPM_P1;HPM_P2
2021/08/12 00:01:46;;;;;;;10.52;9.35;;;11.70;99.90;;;;;;5075176;28;20131;-86
2021/08/12 00:04:17;;;;;;;10.57;9.20;;;11.60;99.90;;;;;;5075230;28;20044;-86
2021/08/12 00:06:47;;;;;;;9.90;8.85;;;11.60;99.90;;;;;;5075149;28;20082;-86
2021/08/12 00:09:15;;;;;;;11.07;8.13;;;11.60;99.90;;;;;;5092973;28;20139;-86
2021/08/12 00:11:42;;;;;;;15.70;9.45;;;11.40;99.90;;;;;;5093217;28;20048;-86
2021/08/12 00:14:08;;;;;;;12.80;10.32;;;11.40;99.90;;;;;;5075095;28;20083;-86
2021/08/12 00:16:35;;;;;;;14.77;9.80;;;11.30;99.90;;;;;;5075081;28;20127;-85
2021/08/12 00:19:02;;;;;;;12.35;9.63;;;11.20;99.90;;;;;;5077579;28;20056;-86
2021/08/12 00:21:30;;;;;;;14.93;9.73;;;11.10;99.90;;;;;;5078775;28;20135;-86
2021/08/12 00:23:57;;;;;;;11.75;9.90;;;11.10;99.90;;;;;;5078489;28;20094;-86
2021/08/12 00:26:24;;;;;;;11.25;9.57;;;11.10;99.90;;;;;;5078219;28;20131;-86
2021/08/12 00:28:50;;;;;;;11.07;9.55;;;11.10;99.90;;;;;;5078578;28;20052;-86
2021/08/12 00:31:17;;;;;;;9.77;8.73;;;11.10;99.90;;;;;;5078311;28;20079;-86
2021/08/12 00:33:44;;;;;;;11.32;9.98;;;11.10;99.90;;;;;;5078158;28;20583;-86
2021/08/12 00:36:11;;;;;;;12.07;9.18;;;11.10;99.90;;;;;;5078021;28;20075;-86
2021/08/12 00:38:38;;;;;;;12.90;9.73;;;11.00;99.90;;;;;;5095821;28;20052;-85
2021/08/12 00:41:04;;;;;;;11.80;10.02;;;10.90;99.90;;;;;;5095770;28;20056;-86
2021/08/12 00:43:31;;;;;;;10.65;9.55;;;10.90;99.90;;;;;;5077901;28;20404;-86
2021/08/12 00:45:58;;;;;;;13.32;9.73;;;11.00;99.90;;;;;;5077570;28;20127;-86
2021/08/12 00:48:25;;;;;;;10.90;9.50;;;11.00;99.90;;;;;;5077859;28;20117;-86
2021/08/12 00:50:52;;;;;;;10.55;9.35;;;11.00;99.90;;;;;;5095842;28;20567;-86
2021/08/12 00:53:20;;;;;;;12.75;10.15;;;10.90;99.90;;;;;;5077912;28;20044;-86
2021/08/12 00:55:47;;;;;;;11.10;9.82;;;10.90;99.90;;;;;;5077851;28;20449;-86
2021/08/12 00:58:18;;;;;;;13.13;9.52;;;10.80;99.90;;;;;;5077766;28;20054;-86
2021/08/12 01:00:46;;;;;;;14.15;10.13;;;10.80;99.90;;;;;;5077595;28;20139;-86
2021/08/12 01:03:14;;;;;;;13.95;10.63;;;10.90;99.90;;;;;;5077444;28;20089;-86
2021/08/12 01:05:52;;;;;;;14.93;10.80;;;10.90;99.90;;;;;;5095605;28;20048;-86
2021/08/12 01:08:35;;;;;;;11.02;9.32;;;10.80;99.90;;;;;;5077385;28;20052;-86
2021/08/12 01:11:37;;;;;;;11.23;8.77;;;10.70;99.90;;;;;;5095266;28;20123;-86
2021/08/12 01:14:35;;;;;;;10.00;8.75;;;10.70;99.90;;;;;;5077128;28;20058;-87
2021/08/12 01:17:06;;;;;;;12.25;9.43;;;10.60;99.90;;;;;;5077499;28;20055;-85
2021/08/12 01:20:20;;;;;;;14.63;11.02;;;10.40;99.90;;;;;;5076887;28;20578;-86
2021/08/12 01:22:48;;;;;;;14.43;10.77;;;10.40;99.90;;;;;;5095283;28;20135;-86
2021/08/12 01:25:22;;;;;;;12.05;10.02;;;10.30;99.90;;;;;;5077233;28;20491;-86
2021/08/12 01:27:51;;;;;;;12.98;10.13;;;10.30;99.90;;;;;;5077310;28;20050;-86
2021/08/12 01:30:24;;;;;;;15.80;10.30;;;10.40;99.90;;;;;;5076035;28;20052;-86
2021/08/12 01:33:12;;;;;;;11.75;10.50;;;10.50;99.90;;;;;;5077252;28;20070;-86
2021/08/12 01:35:41;;;;;;;12.50;10.48;;;10.60;99.90;;;;;;5077083;28;20048;-86
2021/08/12 01:38:12;;;;;;;12.73;9.95;;;10.60;99.90;;;;;;5076758;28;20044;-86
2021/08/12 01:40:40;;;;;;;12.18;9.82;;;10.60;99.90;;;;;;5077158;28;20051;-86
2021/08/12 01:43:15;;;;;;;13.55;10.25;;;10.50;99.90;;;;;;5077160;28;20131;-86
2021/08/12 01:45:49;;;;;;;10.68;9.32;;;10.40;99.90;;;;;;5077054;28;20044;-86
2021/08/12 01:48:17;;;;;;;19.15;10.05;;;10.40;99.90;;;;;;5076847;28;20063;-86
2021/08/12 01:50:44;;;;;;;13.95;11.13;;;10.40;99.90;;;;;;5094482;28;20411;-86
2021/08/12 01:53:12;;;;;;;16.80;11.95;;;10.50;99.90;;;;;;5076920;28;20044;-86
2021/08/12 01:55:40;;;;;;;13.23;10.63;;;10.50;99.90;;;;;;5076695;28;20050;-86
2021/08/12 01:58:09;;;;;;;14.95;11.10;;;10.50;99.90;;;;;;5094260;28;20525;-86
2021/08/12 02:00:37;;;;;;;13.45;10.35;;;10.40;99.90;;;;;;5077709;28;20146;-87
2021/08/12 02:03:05;;;;;;;19.35;11.57;;;10.30;99.90;;;;;;5079795;28;20142;-86
2021/08/12 02:05:32;;;;;;;14.55;10.60;;;10.30;99.90;;;;;;5095509;28;20055;-86
2021/08/12 02:08:00;;;;;;;12.85;10.13;;;10.30;99.90;;;;;;5076484;28;20117;-86
2021/08/12 02:10:27;;;;;;;12.38;10.18;;;10.20;99.90;;;;;;5076934;28;20115;-85
2021/08/12 02:12:54;;;;;;;15.88;10.18;;;10.10;99.90;;;;;;5079735;28;20142;-86
2021/08/12 02:15:21;;;;;;;15.57;11.25;;;10.00;99.90;;;;;;5078768;28;20058;-86
2021/08/12 02:17:48;;;;;;;12.55;10.55;;;10.10;99.90;;;;;;5076270;28;20052;-86
2021/08/12 02:20:17;;;;;;;17.17;10.85;;;10.20;99.90;;;;;;5076066;28;20082;-86
2021/08/12 02:23:01;;;;;;;13.80;10.23;;;10.30;99.90;;;;;;5076255;28;20052;-86
2021/08/12 02:25:33;;;;;;;15.30;11.45;;;10.20;99.90;;;;;;5076179;28;20555;-87
2021/08/12 02:28:03;;;;;;;18.80;11.10;;;10.30;99.90;;;;;;5093916;28;20048;-86
2021/08/12 02:30:36;;;;;;;14.32;10.07;;;10.30;99.90;;;;;;5093945;28;20155;-87
2021/08/12 02:33:05;;;;;;;11.77;9.60;;;10.30;99.90;;;;;;5076258;28;20127;-86
2021/08/12 02:35:35;;;;;;;13.05;11.00;;;10.30;99.90;;;;;;5075382;28;20052;-86
2021/08/12 02:38:03;;;;;;;14.73;10.68;;;10.30;99.90;;;;;;5075645;28;20361;-86
2021/08/12 02:40:30;;;;;;;11.95;9.60;;;10.30;99.90;;;;;;5093080;28;20056;-86
2021/08/12 02:42:59;;;;;;;10.50;9.40;;;10.30;99.90;;;;;;5075702;28;20076;-86
2021/08/12 02:45:27;;;;;;;12.60;8.73;;;10.20;99.90;;;;;;5075721;28;20052;-87
2021/08/12 02:47:55;;;;;;;13.52;10.25;;;10.20;99.90;;;;;;5075705;28;20044;-86
2021/08/12 02:50:23;;;;;;;16.05;10.02;;;10.10;99.90;;;;;;5075558;28;20044;-86
2021/08/12 02:52:51;;;;;;;13.18;10.90;;;10.20;99.90;;;;;;5075770;28;20051;-86
2021/08/12 02:55:18;;;;;;;14.23;10.90;;;10.10;99.90;;;;;;5075682;28;20048;-87
2021/08/12 02:57:46;;;;;;;15.55;10.43;;;10.10;99.90;;;;;;5075661;28;20492;-86
2021/08/12 03:00:13;;;;;;;13.55;9.75;;;10.10;99.90;;;;;;5075525;28;20051;-86
2021/08/12 03:02:46;;;;;;;16.48;10.27;;;10.00;99.90;;;;;;5075699;28;20495;-85
2021/08/12 03:05:14;;;;;;;;;;;10.00;99.90;;;;;;5093575;28;20055;-86
2021/08/12 03:07:45;;;;;;;16.10;10.88;;;9.90;99.90;;;;;;5075865;28;19924;-86
2021/08/12 03:10:13;;;;;;;14.43;9.80;;;9.80;99.90;;;;;;5093310;28;20049;-86
2021/08/12 03:12:41;;;;;;;13.40;9.80;;;9.80;99.90;;;;;;5075590;28;20067;-86
2021/08/12 03:15:09;;;;;;;14.45;10.90;;;9.70;99.90;;;;;;5075221;28;20136;-86
2021/08/12 03:17:37;;;;;;;14.65;11.05;;;9.70;99.90;;;;;;5075442;28;20078;-86
2021/08/12 03:20:06;;;;;;;14.77;11.40;;;9.70;99.90;;;;;;5075338;28;20058;-86
2021/08/12 03:22:33;;;;;;;13.38;10.80;;;9.70;99.90;;;;;;5075476;28;20058;-86
2021/08/12 03:25:00;;;;;;;12.88;10.32;;;9.80;99.90;;;;;;5075412;28;20096;-86
2021/08/12 03:27:27;;;;;;;13.10;10.32;;;9.90;99.90;;;;;;5075301;28;20134;-87
2021/08/12 03:29:54;;;;;;;14.68;10.75;;;9.90;99.90;;;;;;5092815;28;20496;-87
2021/08/12 03:32:21;;;;;;;12.77;9.50;;;9.80;99.90;;;;;;5092863;28;20054;-86
2021/08/12 03:34:48;;;;;;;12.00;9.63;;;9.80;99.90;;;;;;5075146;28;20048;-87
2021/08/12 03:37:15;;;;;;;15.68;10.77;;;9.60;99.90;;;;;;5075119;28;20060;-86
2021/08/12 03:39:42;;;;;;;13.38;9.55;;;9.60;99.90;;;;;;5075437;28;20101;-87
2021/08/12 03:42:09;;;;;;;14.35;11.18;;;9.70;99.90;;;;;;5075002;28;20130;-86
2021/08/12 03:44:36;;;;;;;16.40;11.10;;;9.60;99.90;;;;;;5074910;28;20214;-87
2021/08/12 03:47:05;;;;;;;13.77;10.98;;;9.60;99.90;;;;;;5074856;28;20052;-86
2021/08/12 03:49:33;;;;;;;15.63;10.05;;;9.70;99.90;;;;;;5075253;28;20052;-86
2021/08/12 03:51:59;;;;;;;17.33;11.13;;;9.70;99.90;;;;;;5075106;28;20074;-87
2021/08/12 03:54:26;;;;;;;15.57;11.48;;;9.70;99.90;;;;;;5078304;28;20076;-86
2021/08/12 03:56:53;;;;;;;14.05;10.18;;;9.60;99.90;;;;;;5078659;28;20050;-87
2021/08/12 03:59:21;;;;;;;16.13;10.55;;;9.60;99.90;;;;;;5096489;28;20052;-86
2021/08/12 04:01:49;;;;;;;12.63;10.65;;;9.60;99.90;;;;;;5078964;28;20450;-87
2021/08/12 04:04:16;;;;;;;13.23;10.60;;;9.50;99.90;;;;;;5096562;28;20090;-87
2021/08/12 04:06:43;;;;;;;13.45;10.82;;;9.50;99.90;;;;;;5079130;28;20040;-87
2021/08/12 04:09:10;;;;;;;14.60;10.98;;;9.40;99.90;;;;;;5096493;28;20052;-87
2021/08/12 04:11:38;;;;;;;14.70;11.20;;;9.40;99.90;;;;;;5078651;28;20044;-87
2021/08/12 04:14:04;;;;;;;17.05;11.75;;;9.50;99.90;;;;;;5078355;28;20134;-87
2021/08/12 04:16:31;;;;;;;15.00;11.57;;;9.40;99.90;;;;;;5078525;28;20052;-87
2021/08/12 04:18:58;;;;;;;19.15;11.98;;;9.50;99.90;;;;;;5077533;28;20141;-87
2021/08/12 04:21:25;;;;;;;13.88;10.70;;;9.40;99.90;;;;;;5096387;28;20052;-87
2021/08/12 04:23:52;;;;;;;13.82;11.57;;;9.50;99.90;;;;;;5096002;28;20066;-87
2021/08/12 04:26:20;;;;;;;17.45;11.75;;;9.60;99.90;;;;;;5077913;28;20131;-86
2021/08/12 04:28:47;;;;;;;15.05;11.80;;;9.60;99.90;;;;;;5078375;28;20130;-87
2021/08/12 04:31:14;;;;;;;18.35;12.73;;;9.70;99.90;;;;;;5078086;28;20536;-87
2021/08/12 04:33:41;;;;;;;21.25;13.10;;;9.70;99.90;;;;;;5078509;28;20109;-87
2021/08/12 04:36:08;;;;;;;18.95;13.40;;;9.80;99.90;;;;;;5077758;28;20131;-86
2021/08/12 04:38:35;;;;;;;19.65;13.88;;;9.90;99.90;;;;;;5078021;28;20534;-87
2021/08/12 04:41:02;;;;;;;16.70;12.27;;;9.90;99.90;;;;;;5095878;28;20048;-87
2021/08/12 04:43:30;;;;;;;16.25;12.18;;;10.00;99.90;;;;;;5077829;28;20520;-87
2021/08/12 04:45:57;;;;;;;19.92;13.32;;;10.00;99.90;;;;;;5077947;28;20048;-87
2021/08/12 04:48:24;;;;;;;15.40;12.93;;;10.00;99.90;;;;;;5078126;28;20044;-86
2021/08/12 04:50:51;;;;;;;18.17;12.70;;;10.10;99.90;;;;;;5078114;28;20139;-87
2021/08/12 04:53:18;;;;;;;18.52;13.27;;;10.10;99.90;;;;;;5077652;28;20051;-86
2021/08/12 04:55:44;;;;;;;15.70;12.95;;;10.20;99.90;;;;;;5077773;28;20083;-86
2021/08/12 04:58:12;;;;;;;22.15;13.73;;;10.20;99.90;;;;;;5077695;28;20052;-87
2021/08/12 05:00:39;;;;;;;26.95;15.52;;;10.30;99.90;;;;;;5077683;28;20050;-87
2021/08/12 05:03:06;;;;;;;19.27;14.35;;;10.30;99.90;;;;;;5077914;28;20139;-87
2021/08/12 05:05:33;;;;;;;18.98;14.57;;;10.30;99.90;;;;;;5077627;28;20054;-87
2021/08/12 05:08:00;;;;;;;26.50;15.45;;;10.50;99.90;;;;;;5095171;28;20051;-87
2021/08/12 05:10:27;;;;;;;29.08;17.73;;;10.60;99.90;;;;;;5077386;28;20131;-87
2021/08/12 05:12:54;;;;;;;23.98;16.42;;;10.70;99.90;;;;;;5076427;28;20055;-86
2021/08/12 05:15:21;;;;;;;18.23;14.38;;;10.70;99.90;;;;;;5077188;28;20052;-87
2021/08/12 05:17:48;;;;;;;27.13;16.58;;;10.90;99.90;;;;;;5077018;28;20488;-87
2021/08/12 05:20:14;;;;;;;25.65;14.65;;;11.10;99.90;;;;;;5077185;28;20083;-87
2021/08/12 05:22:41;;;;;;;20.27;15.07;;;11.20;99.90;;;;;;5077353;28;20048;-87
2021/08/12 05:25:08;;;;;;;27.50;17.77;;;11.30;99.90;;;;;;5076975;28;20076;-87
2021/08/12 05:27:35;;;;;;;27.85;20.08;;;11.60;99.90;;;;;;5076948;28;20074;-87
2021/08/12 05:30:03;;;;;;;22.15;16.10;;;12.40;99.90;;;;;;5077272;28;20075;-87
2021/08/12 05:32:29;;;;;;;17.08;12.93;;;13.40;99.90;;;;;;5094948;28;20051;-87
2021/08/12 05:34:56;;;;;;;11.80;8.63;;;14.00;99.90;;;;;;5076863;28;20058;-87
2021/08/12 05:37:23;;;;;;;17.33;8.45;;;14.60;99.90;;;;;;5094720;28;20146;-87
2021/08/12 05:39:50;;;;;;;11.05;6.40;;;15.40;99.90;;;;;;5077044;28;20079;-87
2021/08/12 05:42:16;;;;;;;16.55;7.68;;;16.10;99.90;;;;;;5076415;28;20127;-87
2021/08/12 05:44:43;;;;;;;9.43;5.80;;;16.50;99.90;;;;;;5076685;28;20411;-87
2021/08/12 05:47:14;;;;;;;8.80;4.80;;;17.20;99.90;;;;;;5077414;28;20138;-88
2021/08/12 05:49:41;;;;;;;5.38;4.85;;;18.20;99.90;;;;;;5076930;28;20126;-88
2021/08/12 05:52:08;;;;;;;9.23;4.95;;;18.80;99.90;;;;;;5076947;28;20048;-87
2021/08/12 05:54:35;;;;;;;6.10;4.55;;;18.80;99.90;;;;;;5076702;28;20051;-87
2021/08/12 05:57:01;;;;;;;17.67;4.88;;;19.40;99.90;;;;;;5076810;28;20044;-87
2021/08/12 05:59:28;;;;;;;12.40;4.97;;;19.80;99.90;;;;;;5076856;28;20051;-87
2021/08/12 06:01:55;;;;;;;10.73;5.28;;;20.70;99.90;;;;;;5076927;28;20052;-87
2021/08/12 06:04:22;;;;;;;4.50;4.05;;;21.20;99.90;;;;;;5093995;28;20054;-87
2021/08/12 06:06:49;;;;;;;17.35;4.53;;;21.90;99.90;;;;;;5076088;28;20048;-87
2021/08/12 06:09:16;;;;;;;8.23;4.60;;;22.70;99.90;;;;;;5076062;28;20143;-87
2021/08/12 06:11:43;;;;;;;6.78;4.43;;;23.00;99.90;;;;;;5076407;28;20134;-88
2021/08/12 06:14:09;;;;;;;6.18;4.68;;;23.90;99.90;;;;;;5094253;28;20233;-88
2021/08/12 06:16:36;;;;;;;12.18;4.40;;;24.50;99.90;;;;;;5075709;28;20135;-88
2021/08/12 06:19:03;;;;;;;8.98;4.90;;;24.30;99.90;;;;;;5076270;28;20040;-88
2021/08/12 06:21:29;;;;;;;18.77;7.22;;;24.00;99.90;;;;;;5076423;28;20111;-87
2021/08/12 06:23:56;;;;;;;15.18;6.55;;;24.20;99.90;;;;;;5076057;28;20127;-87
2021/08/12 06:26:23;;;;;;;17.15;6.72;;;23.90;99.90;;;;;;5075801;28;20063;-86
2021/08/12 06:28:50;;;;;;;22.13;7.18;;;23.70;99.90;;;;;;5094071;28;20040;-87
2021/08/12 06:31:17;;;;;;;16.52;6.35;;;23.40;99.90;;;;;;5076216;28;20090;-87
2021/08/12 06:33:44;;;;;;;15.50;6.20;;;23.30;99.90;;;;;;5076305;28;20123;-86
2021/08/12 06:36:11;;;;;;;14.88;6.65;;;23.40;99.90;;;;;;5075907;28;20052;-87
2021/08/12 06:38:42;;;;;;;23.88;6.43;;;23.60;99.90;;;;;;5076655;28;20105;-86
2021/08/12 06:41:09;;;;;;;23.05;6.90;;;23.80;99.90;;;;;;5093978;28;20492;-87
2021/08/12 06:43:36;;;;;;;7.97;5.03;;;24.20;99.90;;;;;;5093855;28;20054;-87
2021/08/12 06:46:03;;;;;;;20.70;5.88;;;24.30;99.90;;;;;;5076200;28;20047;-87
2021/08/12 06:48:30;;;;;;;14.52;6.20;;;24.70;99.90;;;;;;5075922;28;20050;-87
2021/08/12 06:50:56;;;;;;;34.53;11.50;;;24.90;99.90;;;;;;5076113;28;20130;-87
2021/08/12 06:53:23;;;;;;;37.92;10.93;;;25.40;99.90;;;;;;5073839;28;20103;-87
2021/08/12 06:55:50;;;;;;;21.05;9.38;;;25.30;99.90;;;;;;5072662;28;20067;-87
2021/08/12 06:58:17;;;;;;;25.23;9.40;;;25.80;99.90;;;;;;5093139;28;20048;-86
2021/08/12 07:00:43;;;;;;;21.33;7.28;;;27.10;98.00;;;;;;5075796;28;20113;-87
2021/08/12 07:03:10;;;;;;;19.67;6.90;;;27.30;96.60;;;;;;5075555;28;20499;-87
2021/08/12 07:05:37;;;;;;;42.17;13.70;;;28.30;94.80;;;;;;5075537;28;20138;-87
2021/08/12 07:08:05;;;;;;;40.53;16.00;;;28.70;92.60;;;;;;5075456;28;20139;-87
2021/08/12 07:10:32;;;;;;;15.77;6.70;;;28.70;91.60;;;;;;5075408;28;20075;-87
2021/08/12 07:12:59;;;;;;;7.97;4.57;;;29.50;90.10;;;;;;5075778;28;20116;-87
2021/08/12 07:15:26;;;;;;;11.35;4.57;;;29.80;87.50;;;;;;5075514;28;20050;-87
2021/08/12 07:17:52;;;;;;;5.43;4.13;;;28.80;89.00;;;;;;5075407;28;20052;-88
2021/08/12 07:20:20;;;;;;;8.43;4.53;;;27.60;89.70;;;;;;5075059;28;20155;-86
2021/08/12 07:22:47;;;;;;;10.65;4.88;;;27.20;91.50;;;;;;5075830;28;20055;-87
2021/08/12 07:25:14;;;;;;;10.23;5.72;;;26.70;92.40;;;;;;5093289;28;20097;-86
2021/08/12 07:27:41;;;;;;;28.17;7.38;;;26.40;92.90;;;;;;5076078;28;20048;-87
2021/08/12 07:30:08;;;;;;;19.63;7.22;;;26.70;93.80;;;;;;5079953;28;20386;-88
2021/08/12 07:32:35;;;;;;;12.40;6.05;;;26.80;94.10;;;;;;5079518;28;20117;-87
2021/08/12 07:35:02;;;;;;;8.48;5.45;;;26.50;92.90;;;;;;5079566;28;20048;-86
2021/08/12 07:37:29;;;;;;;10.48;5.00;;;27.20;93.30;;;;;;5079359;28;20385;-88
2021/08/12 07:39:56;;;;;;;9.73;4.70;;;28.70;92.10;;;;;;5079499;28;20081;-87
2021/08/12 07:42:22;;;;;;;9.60;5.05;;;29.90;90.90;;;;;;5078581;28;20058;-88
2021/08/12 07:44:49;;;;;;;9.25;5.15;;;30.70;87.20;;;;;;5072955;28;20122;-87
2021/08/12 07:47:16;;;;;;;11.27;5.55;;;30.40;84.40;;;;;;5066803;28;20048;-88
2021/08/12 07:49:43;;;;;;;18.05;6.57;;;30.50;84.20;;;;;;5073221;28;20488;-88
2021/08/12 07:52:10;;;;;;;11.25;6.20;;;30.20;84.70;;;;;;5078968;28;20515;-86
2021/08/12 07:54:37;;;;;;;23.42;6.57;;;30.20;86.60;;;;;;5096593;28;20050;-88
2021/08/12 07:57:05;;;;;;;12.80;5.95;;;30.10;86.70;;;;;;5078157;28;20052;-87
2021/08/12 07:59:32;;;;;;;11.27;5.47;;;29.20;87.40;;;;;;5078421;28;20046;-87
2021/08/12 08:01:59;;;;;;;12.77;5.00;;;29.00;88.70;;;;;;5096419;28;20048;-87
2021/08/12 08:04:27;;;;;;;8.77;4.80;;;28.80;89.00;;;;;;5075063;28;20128;-87
2021/08/12 08:06:54;;;;;;;7.82;5.20;;;29.00;89.20;;;;;;5068292;28;20069;-89
2021/08/12 08:09:20;;;;;;;8.93;4.57;;;29.10;89.70;;;;;;5069016;28;20041;-88
2021/08/12 08:11:47;;;;;;;5.18;4.18;;;28.40;90.40;;;;;;5069426;28;20058;-88
2021/08/12 08:14:14;;;;;;;8.95;4.32;;;28.30;90.00;;;;;;5068050;28;20043;-89
2021/08/12 08:16:42;;;;;;;11.00;4.13;;;28.40;91.40;;;;;;5087554;28;20061;-87
2021/08/12 08:19:10;;;;;;;7.43;4.78;;;28.70;89.50;;;;;;5070293;28;20037;-87
2021/08/12 08:21:39;;;;;;;8.95;4.50;;;29.00;89.80;;;;;;5067748;28;20043;-88
2021/08/12 08:24:07;;;;;;;8.35;4.60;;;29.80;88.60;;;;;;5086734;28;20127;-88
2021/08/12 08:26:34;;;;;;;9.77;4.80;;;31.10;86.70;;;;;;5075336;28;20044;-88
2021/08/12 08:29:00;;;;;;;7.07;4.28;;;31.90;82.00;;;;;;5058190;28;20420;-88
2021/08/12 08:31:27;;;;;;;7.00;4.03;;;32.60;81.20;;;;;;5058320;28;20048;-87
2021/08/12 08:33:56;;;;;;;10.73;4.47;;;32.40;79.30;;;;;;5063608;28;20041;-87
2021/08/12 08:36:25;;;;;;;6.53;4.15;;;32.80;78.30;;;;;;5087033;28;20054;-88
2021/08/12 08:38:52;;;;;;;6.40;3.90;;;33.20;75.80;;;;;;5058597;28;20048;-88
2021/08/12 08:41:19;;;;;;;5.32;3.70;;;33.10;76.70;;;;;;5063467;28;20040;-87
2021/08/12 08:43:49;;;;;;;7.20;3.95;;;33.60;76.60;;;;;;5063586;28;20143;-87
2021/08/12 08:46:17;;;;;;;8.18;3.97;;;33.80;75.10;;;;;;5057583;28;20397;-86
2021/08/12 08:48:45;;;;;;;5.72;3.83;;;34.80;72.30;;;;;;5057648;28;20083;-88
2021/08/12 08:51:14;;;;;;;6.00;3.50;;;35.80;70.20;;;;;;5071128;28;20556;-88
2021/08/12 08:53:43;;;;;;;8.57;3.63;;;36.70;67.40;;;;;;5071908;28;20044;-88
2021/08/12 08:56:10;;;;;;;5.10;3.50;;;36.10;67.30;;;;;;5067047;28;20044;-89
2021/08/12 08:58:39;;;;;;;3.90;3.60;;;37.50;65.60;;;;;;5068209;28;20083;-87
2021/08/12 09:01:05;;;;;;;3.58;3.28;;;36.00;67.10;;;;;;5059917;28;20561;-88
2021/08/12 09:03:33;;;;;;;5.60;3.42;;;35.30;69.10;;;;;;5057646;28;20048;-88
2021/08/12 09:06:00;;;;;;;6.43;3.50;;;35.20;67.50;;;;;;5057531;28;20492;-90
2021/08/12 09:08:29;;;;;;;3.78;2.83;;;35.10;69.60;;;;;;5057725;28;20048;-90
2021/08/12 09:10:56;;;;;;;4.07;3.22;;;36.70;64.70;;;;;;5075112;28;20082;-90
2021/08/12 09:13:23;;;;;;;2.97;2.67;;;;;;;;;;5057568;28;20045;-89
2021/08/12 09:15:50;;;;;;;6.07;2.35;;;39.80;55.70;;;;;;5057433;28;20052;-89
2021/08/12 09:18:20;;;;;;;3.22;2.30;;;40.10;53.90;;;;;;5057487;28;20044;-89
2021/08/12 09:20:49;;;;;;;2.40;2.20;;;39.30;51.00;;;;;;5057563;28;20420;-89
2021/08/12 09:23:25;;;;;;;2.60;2.40;;;38.30;51.60;;;;;;5057615;28;20047;-88
2021/08/12 09:25:53;;;;;;;2.30;2.10;;;39.60;53.10;;;;;;5074961;28;20052;-88
2021/08/12 09:28:28;;;;;;;2.65;2.50;;;42.30;50.20;;;;;;5057312;28;20041;-89
2021/08/12 09:31:01;;;;;;;3.65;2.15;;;42.90;47.70;;;;;;5057489;28;20087;-88
2021/08/12 09:33:32;;;;;;;;;;;41.50;49.20;;;;;;5074780;28;20048;-89
2021/08/12 09:36:00;;;;;;;2.25;2.00;;;41.40;49.70;;;;;;5074749;28;19971;-88
2021/08/12 09:38:27;;;;;;;2.50;2.03;;;42.20;49.40;;;;;;5056708;28;20067;-89
2021/08/12 09:40:57;;;;;;;2.65;2.45;;;40.80;46.50;;;;;;5057370;28;20080;-90
2021/08/12 09:43:30;;;;;;;3.75;2.20;;;39.30;48.10;;;;;;5076955;28;20048;-86
2021/08/12 09:45:57;;;;;;;3.70;2.85;;;37.10;49.70;;;;;;5076630;28;20123;-86
2021/08/12 09:48:24;;;;;;;2.55;2.22;;;36.10;51.50;;;;;;5094932;28;20142;-86
2021/08/12 09:51:01;;;;;;;5.00;2.72;;;35.40;51.90;;;;;;5075682;28;20052;-86
2021/08/12 09:53:29;;;;;;;3.28;2.33;;;35.10;55.10;;;;;;5076915;28;20051;-86
2021/08/12 09:56:07;;;;;;;2.13;2.03;;;35.20;54.60;;;;;;5076424;28;20412;-86
2021/08/12 09:58:37;;;;;;;14.68;5.40;;;35.80;54.50;;;;;;5094724;28;20414;-87
2021/08/12 10:01:19;;;;;;;10.40;4.40;;;36.30;52.20;;;;;;5071414;28;20131;-87
2021/08/12 10:03:49;;;;;;;5.68;3.30;;;38.50;51.30;;;;;;5066608;28;20049;-87
2021/08/12 10:06:25;;;;;;;3.72;2.65;;;40.30;49.20;;;;;;5082331;28;20477;-88
2021/08/12 10:08:52;;;;;;;2.83;2.50;;;40.90;48.50;;;;;;5065002;28;20127;-87
2021/08/12 10:11:23;;;;;;;2.65;2.35;;;41.50;46.80;;;;;;5066686;28;20382;-88
2021/08/12 10:14:02;;;;;;;4.15;3.17;;;41.50;47.30;;;;;;5093722;28;20054;-86
2021/08/12 10:16:31;;;;;;;2.67;2.13;;;39.70;47.40;;;;;;5069551;28;20044;-87
2021/08/12 10:18:59;;;;;;;2.38;2.28;;;40.40;47.70;;;;;;5065359;28;20101;-88
2021/08/12 10:21:27;;;;;;;2.60;2.45;;;40.60;46.40;;;;;;5066218;28;20048;-88
2021/08/12 10:23:56;;;;;;;2.30;2.10;;;41.60;47.30;;;;;;5064609;28;20055;-88
2021/08/12 10:26:25;;;;;;;2.63;2.42;;;41.90;45.80;;;;;;5065154;28;20055;-88
2021/08/12 10:28:59;;;;;;;2.90;2.17;;;41.20;46.40;;;;;;5075507;28;20048;-87
2021/08/12 10:31:29;;;;;;;2.65;2.20;;;40.70;46.30;;;;;;5075924;28;20055;-86
2021/08/12 10:33:57;;;;;;;10.55;4.97;;;39.90;46.30;;;;;;5075361;28;20545;-88
2021/08/12 10:36:24;;;;;;;6.45;3.42;;;39.00;47.00;;;;;;5075218;28;20054;-87
2021/08/12 10:38:53;;;;;;;4.63;2.92;;;39.10;47.30;;;;;;5075805;28;20119;-87
2021/08/12 10:41:20;;;;;;;2.60;2.40;;;38.10;48.70;;;;;;5093430;28;20519;-87
2021/08/12 10:43:52;;;;;;;2.53;2.33;;;36.90;49.30;;;;;;5093603;28;20047;-85
2021/08/12 10:46:40;;;;;;;2.05;1.95;;;35.90;50.10;;;;;;5062524;28;20052;-86
2021/08/12 10:49:30;;;;;;;3.33;2.97;;;34.80;51.40;;;;;;5065900;28;20067;-87
2021/08/12 10:52:06;;;;;;;3.75;2.35;;;32.80;53.10;;;;;;5063532;28;20052;-87
2021/08/12 10:54:38;;;;;;;5.30;2.75;;;31.30;55.30;;;;;;5069906;28;20074;-87
2021/08/12 10:57:16;;;;;;;2.70;2.60;;;31.10;57.50;;;;;;5083891;28;20404;-86
2021/08/12 10:59:44;;;;;;;2.60;2.40;;;32.20;57.70;;;;;;5073122;28;20048;-87
2021/08/12 11:02:27;;;;;;;2.40;2.20;;;32.10;56.60;;;;;;5067874;28;20541;-86
2021/08/12 11:04:59;;;;;;;3.67;2.67;;;32.00;57.50;;;;;;5074731;28;20101;-87
2021/08/12 11:07:39;;;;;;;2.55;2.15;;;32.10;58.70;;;;;;5093044;28;20449;-86
2021/08/12 11:10:14;;;;;;;2.55;2.35;;;32.00;57.10;;;;;;5075233;28;20052;-86
2021/08/12 11:12:57;;;;;;;2.58;2.13;;;31.70;57.00;;;;;;5066945;28;20148;-88
2021/08/12 11:15:41;;;;;;;3.95;2.80;;;31.40;57.70;;;;;;5057160;28;20552;-87
2021/08/12 11:18:11;;;;;;;3.83;2.28;;;30.60;58.10;;;;;;5055217;28;20040;-86
2021/08/12 11:20:40;;;;;;;5.22;2.40;;;30.40;59.00;;;;;;5054796;28;20271;-87
2021/08/12 11:23:22;;;;;;;3.40;3.10;;;31.10;59.30;;;;;;5072003;28;20412;-87
2021/08/12 11:25:55;;;;;;;4.47;2.25;;;31.90;57.90;;;;;;5054790;28;20135;-86
2021/08/12 11:28:49;;;;;;;4.57;3.20;;;32.80;57.50;;;;;;5054552;28;20412;-86
2021/08/12 11:31:21;;;;;;;11.65;5.20;;;34.60;55.30;;;;;;5072715;28;20055;-87
2021/08/12 11:33:56;;;;;;;2.95;2.63;;;34.00;53.70;;;;;;5055125;28;20052;-86
2021/08/12 11:36:29;;;;;;;2.78;2.20;;;34.40;55.10;;;;;;5072400;28;20052;-86
2021/08/12 11:39:03;;;;;;;6.23;2.93;;;35.00;56.20;;;;;;5055290;28;20051;-86
2021/08/12 11:41:41;;;;;;;2.50;2.30;;;34.50;54.70;;;;;;5072856;28;20147;-86
2021/08/12 11:44:14;;;;;;;3.35;2.63;;;34.10;55.00;;;;;;5054845;28;20048;-88
2021/08/12 11:46:41;;;;;;;9.10;3.38;;;33.30;55.30;;;;;;5055095;28;20131;-86
2021/08/12 11:49:14;;;;;;;2.90;2.28;;;32.80;56.70;;;;;;5054991;28;20049;-86
2021/08/12 11:51:41;;;;;;;2.47;2.38;;;32.10;57.00;;;;;;5055315;28;20498;-87
2021/08/12 11:54:10;;;;;;;2.42;2.30;;;32.10;57.20;;;;;;5055102;28;20119;-88
2021/08/12 11:56:38;;;;;;;3.83;2.45;;;31.70;56.60;;;;;;5054890;28;20049;-87
2021/08/12 11:59:05;;;;;;;2.55;2.13;;;32.10;57.80;;;;;;5072795;28;20088;-86
2021/08/12 12:01:34;;;;;;;3.05;1.95;;;32.50;57.70;;;;;;5055018;28;20413;-86
2021/08/12 12:04:03;;;;;;;3.40;2.50;;;32.90;56.20;;;;;;5072701;28;20052;-86
2021/08/12 12:06:40;;;;;;;2.47;2.28;;;32.60;55.70;;;;;;5054441;28;20102;-86
2021/08/12 12:09:37;;;;;;;2.75;2.55;;;32.40;55.80;;;;;;5072448;28;20477;-87
2021/08/12 12:12:09;;;;;;;4.97;2.70;;;31.70;56.30;;;;;;5051292;28;20131;-86
2021/08/12 12:14:41;;;;;;;6.82;2.65;;;31.50;57.20;;;;;;5056476;28;20493;-86
2021/08/12 12:17:21;;;;;;;4.32;2.55;;;31.10;57.60;;;;;;5058065;28;20136;-86
2021/08/12 12:20:00;;;;;;;4.28;2.55;;;31.10;57.30;;;;;;5057942;28;20123;-85
2021/08/12 12:22:32;;;;;;;3.20;2.50;;;31.20;57.60;;;;;;5057942;28;20048;-85
2021/08/12 12:25:00;;;;;;;2.97;2.30;;;31.50;57.70;;;;;;5075629;28;20044;-87
2021/08/12 12:27:28;;;;;;;5.80;2.75;;;31.50;61.00;;;;;;5075782;28;20040;-86
2021/08/12 12:30:12;;;;;;;2.70;2.50;;;31.40;57.80;;;;;;5058204;28;20054;-86
2021/08/12 12:32:41;;;;;;;2.65;2.50;;;31.40;57.70;;;;;;5058025;28;20139;-86
2021/08/12 12:35:09;;;;;;;3.47;3.08;;;31.30;57.60;;;;;;5057820;28;20056;-86
2021/08/12 12:37:39;;;;;;;2.90;2.63;;;31.20;58.50;;;;;;5075318;28;20513;-85
2021/08/12 12:40:09;;;;;;;3.40;2.42;;;31.00;58.20;;;;;;5058150;28;20136;-86
2021/08/12 12:42:37;;;;;;;2.30;2.20;;;31.10;58.10;;;;;;5057674;28;20053;-86
2021/08/12 12:45:07;;;;;;;3.42;2.55;;;31.10;59.50;;;;;;5057464;28;20473;-87
2021/08/12 12:47:35;;;;;;;2.67;2.50;;;31.10;58.90;;;;;;5074882;28;20047;-86
2021/08/12 12:50:13;;;;;;;2.67;2.47;;;30.90;58.20;;;;;;5075143;28;20048;-86
2021/08/12 12:52:57;;;;;;;2.92;2.17;;;30.90;58.20;;;;;;5075267;28;20055;-88